Time;durP1;ratioP1;P1;durP2;ratioP2;P2;SDS_P1;SDS_P2;PMS_P1;PMS_P2;Temp;Humidity;BMP_temperature;BMP_pressure;BME280_temperature;BME280_humidity;BME280_pressure;Samples;Min_cycle;Max_cycle;Signal;HPM_P1;HPM_P2
2021/01/18 00:00:22;;;;;;;34.73;16.23;;;;;;;-8.23;76.71;99498.44;1814271;78;21256;-83
2021/01/18 00:02:51;;;;;;;54.60;18.23;;;;;;;-8.17;76.16;99495.39;1817595;78;21102;-83
2021/01/18 00:05:19;;;;;;;45.15;17.00;;;;;;;-8.16;76.26;99504.69;1790355;79;21268;-84
2021/01/18 00:07:51;;;;;;;45.30;16.20;;;;;;;-8.10;75.47;99499.98;1812265;78;21247;-83
2021/01/18 00:10:22;;;;;;;31.33;14.90;;;;;;;-8.10;75.51;99499.98;1794006;80;21279;-83
2021/01/18 00:12:52;;;;;;;34.20;14.18;;;;;;;-8.12;75.54;99504.07;1820383;78;21220;-82
2021/01/18 00:15:22;;;;;;;41.60;15.60;;;;;;;-8.08;75.46;99499.67;1782725;80;21229;-84
2021/01/18 00:17:52;;;;;;;37.63;14.18;;;;;;;-8.07;75.27;99497.64;1787503;80;21248;-82
2021/01/18 00:20:22;;;;;;;33.18;13.25;;;;;;;-8.07;75.75;99502.69;1819810;78;21317;-82
2021/01/18 00:22:50;;;;;;;29.50;13.30;;;;;;;-8.04;75.48;99501.58;1821658;78;21547;-82
2021/01/18 00:25:23;;;;;;;32.05;13.10;;;;;;;-8.04;75.79;99492.73;1776711;80;21249;-82
2021/01/18 00:27:52;;;;;;;30.05;10.72;;;;;;;-8.04;76.28;99495.27;1784844;78;21493;-81
2021/01/18 00:30:24;;;;;;;28.62;12.37;;;;;;;-8.02;76.04;99497.11;1805494;79;21264;-83
2021/01/18 00:32:52;;;;;;;26.75;11.50;;;;;;;-8.04;76.82;99502.84;1786878;79;21548;-83
2021/01/18 00:35:21;;;;;;;26.10;10.75;;;;;;;-8.00;76.36;99503.11;1795411;79;21267;-84
2021/01/18 00:37:52;;;;;;;32.67;12.75;;;;;;;-7.89;75.57;99503.69;1804701;79;21296;-84
2021/01/18 00:40:23;;;;;;;39.20;13.83;;;;;;;-7.93;75.62;99497.99;1806145;79;21193;-84
2021/01/18 00:42:52;;;;;;;30.25;12.75;;;;;;;-7.99;75.92;99501.45;1812221;79;21272;-84
2021/01/18 00:45:23;;;;;;;42.53;14.73;;;;;;;-7.92;75.26;99495.93;1807758;79;21392;-83
2021/01/18 00:47:54;;;;;;;20.00;10.08;;;;;;;-7.90;75.26;99502.33;1802793;79;21260;-83
2021/01/18 00:50:28;;;;;;;30.37;11.95;;;;;;;-7.86;74.87;99499.19;1790854;79;21563;-82
2021/01/18 00:52:59;;;;;;;23.62;11.73;;;;;;;-7.91;74.66;99496.42;1801630;79;21614;-83
2021/01/18 00:55:29;;;;;;;33.00;12.10;;;;;;;-7.92;74.85;99494.67;1829537;78;21474;-83
2021/01/18 00:58:12;;;;;;;23.65;10.72;;;;;;;-7.91;75.08;99496.42;1814718;77;22919;-83
2021/01/18 01:00:42;;;;;;;24.45;11.35;;;;;;;-7.92;74.91;99494.67;1781442;79;21271;-82
2021/01/18 01:03:10;;;;;;;36.05;13.30;;;;;;;-7.97;75.16;99497.35;1776866;80;21252;-84
2021/01/18 01:05:38;;;;;;;23.52;12.07;;;;;;;-8.04;75.78;99500.31;1767963;80;21322;-84
2021/01/18 01:08:06;;;;;;;34.27;12.88;;;;;;;-7.92;75.07;99511.07;1788081;80;21264;-85
2021/01/18 01:10:35;;;;;;;28.45;12.85;;;;;;;-7.92;75.62;99504.77;1771155;80;21252;-84
2021/01/18 01:13:07;;;;;;;28.70;12.53;;;;;;;-7.85;75.23;99516.94;1778991;79;21297;-84
2021/01/18 01:15:35;;;;;;;32.25;13.35;;;;;;;-7.83;75.31;99512.84;1793119;78;21249;-83
2021/01/18 01:18:04;;;;;;;30.08;12.25;;;;;;;-7.80;75.32;99513.03;1732043;81;21145;-82
2021/01/18 01:20:32;;;;;;;34.78;13.03;;;;;;;-7.84;75.87;99506.08;1716905;83;21741;-83
2021/01/18 01:23:00;;;;;;;33.63;14.58;;;;;;;-7.86;75.92;99508.02;1746129;81;21290;-82
2021/01/18 01:25:28;;;;;;;28.73;11.93;;;;;;;-7.84;76.06;99516.17;1729513;81;22424;-84
2021/01/18 01:27:56;;;;;;;25.05;12.65;;;;;;;-7.87;76.66;99510.94;1724474;82;21218;-82
2021/01/18 01:30:26;;;;;;;38.13;13.38;;;;;;;-7.83;76.60;99509.06;1730566;82;21211;-84
2021/01/18 01:32:54;;;;;;;33.10;13.13;;;;;;;-7.88;76.95;99503.28;1719206;82;21143;-83
2021/01/18 01:35:28;;;;;;;32.35;13.03;;;;;;;-7.83;76.02;99502.75;1727081;82;21276;-83
2021/01/18 01:37:57;;;;;;;25.95;10.60;;;;;;;-7.86;76.73;99496.66;1727982;81;21215;-84
2021/01/18 01:40:25;;;;;;;27.60;11.75;;;;;;;-7.90;76.81;99494.76;1720041;81;21258;-84
2021/01/18 01:42:52;;;;;;;26.90;11.08;;;;;;;-7.81;76.24;99493.60;1717573;82;21140;-84
2021/01/18 01:45:20;;;;;;;24.37;10.20;;;;;;;-7.76;76.07;99491.72;1748048;81;21272;-84
2021/01/18 01:47:54;;;;;;;25.95;11.70;;;;;;;-7.78;76.27;99489.11;1725421;83;21159;-83
2021/01/18 01:50:37;;;;;;;28.02;10.28;;;;;;;-7.74;75.83;99490.14;1743146;81;21254;-81
2021/01/18 01:53:18;;;;;;;25.32;9.88;;;;;;;-7.86;76.41;99488.72;1731012;81;21132;-82
2021/01/18 01:55:48;;;;;;;25.15;9.75;;;;;;;-7.83;76.18;99483.81;1716361;83;21293;-82
2021/01/18 01:58:16;;;;;;;19.27;8.23;;;;;;;-7.76;75.73;99482.88;1712075;84;21191;-84
2021/01/18 02:00:44;;;;;;;19.92;9.15;;;;;;;-7.71;75.42;99473.91;1712458;83;21253;-83
2021/01/18 02:03:16;;;;;;;21.73;8.58;;;;;;;-7.72;75.40;99478.07;1707741;83;21246;-82
2021/01/18 02:05:44;;;;;;;23.22;9.98;;;;;;;-7.75;75.86;99477.06;1758790;80;21276;-82
2021/01/18 02:08:12;;;;;;;25.55;10.43;;;;;;;-7.86;76.23;99476.09;1770547;80;21317;-83
2021/01/18 02:10:42;;;;;;;22.82;10.68;;;;;;;-8.00;76.93;99482.92;1758115;80;21625;-84
2021/01/18 02:13:48;;;;;;;26.20;12.58;;;;;;;-7.87;76.19;99485.70;1754162;80;21264;-83
2021/01/18 02:16:29;;;;;;;25.37;12.00;;;;;;;-7.86;76.11;99498.81;1763286;80;21249;-82
2021/01/18 02:19:28;;;;;;;30.92;10.65;;;;;;;-7.89;76.88;99498.63;1761414;80;21170;-82
2021/01/18 02:22:33;;;;;;;35.38;12.75;;;;;;;-7.86;76.40;99502.60;1701567;82;21339;-82
2021/01/18 02:25:36;;;;;;;29.12;11.75;;;;;;;-7.81;76.32;99509.16;1756661;80;21287;-81
2021/01/18 02:28:32;;;;;;;22.00;10.27;;;;;;;-7.86;76.51;99484.94;1762186;80;21270;-81
2021/01/18 02:31:23;;;;;;;26.97;10.60;;;;;;;-7.73;76.31;99499.07;1771089;80;21272;-83
2021/01/18 02:34:21;;;;;;;34.33;12.28;;;;;;;-7.68;76.11;99501.83;1769363;80;21269;-82
2021/01/18 02:37:03;;;;;;;20.23;9.58;;;;;;;-7.65;76.22;99505.80;1763020;80;21136;-84
2021/01/18 02:39:48;;;;;;;27.25;11.50;;;;;;;-7.59;75.74;99498.55;1773758;80;21289;-82
2021/01/18 02:42:27;;;;;;;22.77;9.83;;;;;;;-7.59;76.25;99503.59;1759031;80;21257;-82
2021/01/18 02:44:59;;;;;;;32.65;12.47;;;;;;;-7.53;75.94;99513.16;1756608;80;21265;-83
2021/01/18 02:47:31;;;;;;;26.57;10.18;;;;;;;-7.50;76.15;99496.89;1766689;80;21272;-81
2021/01/18 02:50:02;;;;;;;32.78;11.25;;;;;;;-7.48;75.78;99494.95;1728530;82;21260;-83
2021/01/18 02:52:30;;;;;;;25.92;11.65;;;;;;;-7.46;76.43;99495.00;1758031;80;21234;-81
2021/01/18 02:54:58;;;;;;;33.40;10.93;;;;;;;-7.40;76.45;99489.01;1758814;80;21289;-83
2021/01/18 02:57:27;;;;;;;31.87;11.97;;;;;;;-7.38;76.72;99497.56;1765347;80;21264;-82
2021/01/18 03:00:00;;;;;;;24.05;10.10;;;;;;;-7.30;76.03;99495.05;1779218;80;21268;-82
2021/01/18 03:02:48;;;;;;;42.78;16.67;;;;;;;-7.29;75.91;99504.34;1769580;80;21253;-82
2021/01/18 03:05:30;;;;;;;42.13;16.27;;;;;;;-7.26;75.66;99508.30;1779545;80;21129;-82
2021/01/18 03:08:18;;;;;;;45.08;17.35;;;;;;;-7.34;75.08;99503.63;1760883;80;21604;-83
2021/01/18 03:11:09;;;;;;;52.48;20.15;;;;;;;-7.37;75.00;99504.73;1752737;80;21294;-82
2021/01/18 03:13:57;;;;;;;49.70;20.43;;;;;;;-7.39;75.00;99497.08;1768227;80;21277;-82
2021/01/18 03:16:29;;;;;;;54.50;19.65;;;;;;;-7.43;75.16;99493.52;1750137;80;21169;-83
2021/01/18 03:19:02;;;;;;;50.88;21.17;;;;;;;-7.36;75.26;99492.56;1738624;80;21626;-81
2021/01/18 03:21:30;;;;;;;37.17;15.20;;;;;;;-7.33;75.34;99486.42;1765490;80;21257;-82
2021/01/18 03:23:58;;;;;;;33.73;14.18;;;;;;;-7.29;75.23;99482.00;1766513;80;21293;-81
2021/01/18 03:26:26;;;;;;;38.15;14.40;;;;;;;-7.25;75.32;99487.69;1769212;80;21308;-83
2021/01/18 03:28:55;;;;;;;25.15;9.83;;;;;;;-7.23;75.24;99486.97;1771168;80;21212;-83
2021/01/18 03:31:23;;;;;;;22.77;10.60;;;;;;;-7.21;75.20;99492.97;1770942;80;21288;-82
2021/01/18 03:33:51;;;;;;;25.90;9.75;;;;;;;-7.14;74.97;99485.33;1761806;80;21301;-80
2021/01/18 03:36:19;;;;;;;25.90;9.88;;;;;;;-7.14;75.25;99481.54;1772218;80;21179;-80
2021/01/18 03:38:47;;;;;;;18.98;8.63;;;;;;;-7.08;75.16;99486.91;1769601;80;21268;-82
2021/01/18 03:41:15;;;;;;;28.10;9.45;;;;;;;-7.07;75.10;99477.25;1763723;80;21338;-83
2021/01/18 03:43:43;;;;;;;16.45;8.55;;;;;;;-7.03;74.96;99480.81;1770422;80;21256;-81
2021/01/18 03:46:11;;;;;;;26.87;11.65;;;;;;;-6.99;74.92;99480.17;1770466;80;21656;-83
2021/01/18 03:48:38;;;;;;;16.55;7.92;;;;;;;-6.95;74.76;99479.94;1768146;80;21261;-82
2021/01/18 03:51:06;;;;;;;28.47;9.05;;;;;;;-6.97;74.90;99482.78;1771130;80;21272;-83
2021/01/18 03:53:34;;;;;;;22.27;9.48;;;;;;;-6.94;74.78;99480.39;1766704;80;21284;-82
2021/01/18 03:56:02;;;;;;;20.70;9.48;;;;;;;-6.97;75.03;99476.06;1768661;80;21631;-83
2021/01/18 03:58:30;;;;;;;26.27;10.98;;;;;;;-6.98;74.94;99479.40;1758571;81;21274;-83
2021/01/18 04:00:58;;;;;;;28.80;12.15;;;;;;;-6.99;75.00;99483.97;1756935;81;21261;-83
2021/01/18 04:03:27;;;;;;;27.70;12.23;;;;;;;-7.00;74.85;99486.04;1753409;81;21213;-83
2021/01/18 04:05:56;;;;;;;28.85;10.60;;;;;;;-7.00;74.99;99491.95;1756633;80;21274;-82
2021/01/18 04:08:25;;;;;;;29.45;10.28;;;;;;;-7.00;75.09;99493.22;1769597;81;21305;-83
2021/01/18 04:10:52;;;;;;;31.42;11.15;;;;;;;-7.01;75.59;99493.98;1756654;81;21243;-83
2021/01/18 04:13:22;;;;;;;32.40;10.20;;;;;;;-7.01;75.82;99501.58;1755066;80;21441;-84
2021/01/18 04:15:49;;;;;;;24.18;10.18;;;;;;;-6.99;75.84;99497.87;1754235;80;21293;-83
2021/01/18 04:18:18;;;;;;;24.35;11.70;;;;;;;-7.03;76.53;99496.84;1775081;79;21289;-84
2021/01/18 04:20:46;;;;;;;19.87;9.65;;;;;;;-7.01;76.73;99495.66;1756018;80;21230;-83
2021/01/18 04:23:14;;;;;;;23.50;10.58;;;;;;;-7.02;76.82;99494.80;1766862;79;21262;-84
2021/01/18 04:25:42;;;;;;;19.52;8.90;;;;;;;-7.01;76.67;99492.73;1752827;80;21293;-84
2021/01/18 04:28:09;;;;;;;25.75;9.80;;;;;;;-7.05;77.17;99483.25;1754351;80;21310;-83
2021/01/18 04:30:38;;;;;;;25.90;9.78;;;;;;;-7.02;76.72;99497.73;1745487;81;21234;-84
2021/01/18 04:33:08;;;;;;;22.45;8.38;;;;;;;-7.05;76.91;99494.62;1729976;77;21349;-83
2021/01/18 04:35:39;;;;;;;23.02;10.15;;;;;;;-7.01;76.24;99499.05;1739850;81;21226;-84
2021/01/18 04:38:08;;;;;;;26.68;10.70;;;;;;;-6.98;75.85;99499.99;1762512;81;21249;-84
2021/01/18 04:40:35;;;;;;;22.85;11.00;;;;;;;-6.99;76.14;99504.19;1751085;81;21239;-84
2021/01/18 04:43:04;;;;;;;26.80;10.32;;;;;;;-6.98;75.73;99503.78;1765910;80;21252;-82
2021/01/18 04:45:33;;;;;;;24.85;9.88;;;;;;;-6.97;75.91;99510.19;1753668;80;21225;-82
2021/01/18 04:48:00;;;;;;;26.75;11.33;;;;;;;-6.99;76.51;99501.66;1747683;79;21234;-84
2021/01/18 04:50:30;;;;;;;29.98;10.95;;;;;;;-6.97;75.80;99501.34;1768131;81;21289;-82
2021/01/18 04:53:08;;;;;;;23.75;10.85;;;;;;;-6.97;75.66;99505.53;1704102;82;21242;-83
2021/01/18 04:56:02;;;;;;;19.67;10.93;;;;;;;-6.95;75.70;99507.34;1754748;79;21257;-81
2021/01/18 04:58:30;;;;;;;;;;;;;;;-6.91;75.71;99505.84;1757153;81;21248;-83
2021/01/18 05:01:03;;;;;;;24.47;9.43;;;;;;;-6.93;75.38;99503.23;1730172;82;20293;-82
2021/01/18 05:03:36;;;;;;;21.63;9.83;;;;;;;-6.94;75.26;99500.62;1734474;82;21123;-81
2021/01/18 05:06:21;;;;;;;20.95;9.38;;;;;;;-6.90;75.37;99510.09;1763142;81;21210;-83
2021/01/18 05:09:20;;;;;;;24.23;9.90;;;;;;;-6.85;75.47;99503.63;1770997;79;21262;-83
2021/01/18 05:11:50;;;;;;;26.85;10.32;;;;;;;-6.80;75.33;99509.80;1663070;83;21245;-82
2021/01/18 05:14:18;;;;;;;37.05;12.55;;;;;;;-6.76;75.19;99509.16;1704834;83;21282;-83
2021/01/18 05:16:53;;;;;;;26.42;11.00;;;;;;;-6.71;75.38;99516.56;1757243;81;21158;-82
2021/01/18 05:19:24;;;;;;;28.47;12.90;;;;;;;-6.70;75.37;99511.98;1758138;81;21240;-83
2021/01/18 05:21:52;;;;;;;34.15;14.33;;;;;;;-6.66;75.18;99516.41;1760047;79;21253;-82
2021/01/18 05:24:22;;;;;;;28.87;12.07;;;;;;;-6.67;75.22;99509.59;1765797;79;21237;-82
2021/01/18 05:27:08;;;;;;;32.00;12.40;;;;;;;-6.60;75.17;99518.38;1761926;81;21169;-83
2021/01/18 05:29:38;;;;;;;25.80;12.13;;;;;;;-6.57;74.90;99519.78;1714919;84;21270;-82
2021/01/18 05:32:23;;;;;;;32.28;13.43;;;;;;;-6.54;74.97;99516.55;1771867;79;21297;-84
2021/01/18 05:35:13;;;;;;;33.70;15.60;;;;;;;-6.50;75.24;99520.97;1760796;79;21241;-83
2021/01/18 05:38:06;;;;;;;27.85;13.05;;;;;;;-6.51;75.25;99511.63;1762954;81;21273;-85
2021/01/18 05:40:42;;;;;;;27.80;12.20;;;;;;;-6.53;74.96;99510.69;1771315;80;21215;-82
2021/01/18 05:43:11;;;;;;;33.70;12.98;;;;;;;-6.60;75.29;99521.77;1762993;81;21222;-83
2021/01/18 05:45:44;;;;;;;79.12;22.07;;;;;;;-6.58;75.24;99513.37;1768476;80;21177;-84
2021/01/18 05:48:15;;;;;;;30.85;11.15;;;;;;;-6.55;75.28;99513.53;1724651;81;21219;-82
2021/01/18 05:50:44;;;;;;;31.93;10.90;;;;;;;-6.67;75.60;99508.33;1758655;80;21269;-81
2021/01/18 05:53:33;;;;;;;41.10;18.45;;;;;;;-6.69;75.78;99504.86;1758602;81;21261;-82
2021/01/18 05:56:20;;;;;;;35.68;12.58;;;;;;;-6.67;76.08;99503.27;1763103;81;21253;-83
2021/01/18 05:58:48;;;;;;;42.45;17.45;;;;;;;-6.62;75.64;99497.20;1753503;81;21289;-82
2021/01/18 06:01:39;;;;;;;34.25;11.15;;;;;;;-6.64;76.06;99503.44;1719050;82;21112;-83
2021/01/18 06:04:10;;;;;;;25.32;10.93;;;;;;;-6.64;75.96;99508.50;1774935;80;21119;-82
2021/01/18 06:06:40;;;;;;;29.07;11.40;;;;;;;-6.68;76.35;99505.75;1752470;79;21249;-83
2021/01/18 06:09:08;;;;;;;26.82;9.78;;;;;;;-6.70;76.14;99505.66;1707502;82;21148;-83
2021/01/18 06:11:36;;;;;;;24.63;9.00;;;;;;;-6.69;76.17;99508.66;1698074;84;21270;-83
2021/01/18 06:14:05;;;;;;;24.20;9.50;;;;;;;-6.64;76.31;99503.44;1756992;81;21302;-82
2021/01/18 06:16:34;;;;;;;25.23;9.80;;;;;;;-6.65;76.23;99500.42;1748314;81;21321;-82
2021/01/18 06:19:08;;;;;;;28.20;10.15;;;;;;;-6.68;76.62;99499.02;1759957;81;21314;-82
2021/01/18 06:21:41;;;;;;;22.48;9.38;;;;;;;-6.68;76.36;99507.02;1752694;81;21234;-82
2021/01/18 06:24:33;;;;;;;27.32;9.78;;;;;;;-6.55;76.07;99509.74;1750169;81;21269;-82
2021/01/18 06:26:59;;;;;;;26.50;9.55;;;;;;;-6.63;76.43;99510.22;1745897;81;21249;-83
2021/01/18 06:29:42;;;;;;;27.80;9.48;;;;;;;-6.53;76.39;99515.34;1754804;81;21119;-82
2021/01/18 06:32:14;;;;;;;21.02;8.45;;;;;;;-6.43;75.92;99511.20;1750335;81;21184;-80
2021/01/18 06:34:42;;;;;;;21.00;9.95;;;;;;;-6.43;75.64;99512.87;1750259;81;21160;-81
2021/01/18 06:37:20;;;;;;;18.02;8.03;;;;;;;-6.37;75.74;99514.84;1755636;81;21416;-81
2021/01/18 06:39:56;;;;;;;28.90;10.75;;;;;;;-6.32;75.66;99508.36;1757427;81;21163;-82
2021/01/18 06:42:24;;;;;;;34.92;11.55;;;;;;;-6.29;76.39;99514.41;1755323;81;21320;-81
2021/01/18 06:44:52;;;;;;;22.62;8.83;;;;;;;-6.19;75.82;99514.45;1756194;81;21281;-79
2021/01/18 06:47:32;;;;;;;17.57;8.20;;;;;;;-6.17;75.72;99510.74;1758298;81;21222;-82
2021/01/18 06:50:05;;;;;;;21.57;8.80;;;;;;;-6.14;75.79;99510.91;1754992;81;21258;-81
2021/01/18 06:52:35;;;;;;;23.95;9.13;;;;;;;-6.11;75.53;99514.83;1759002;81;21269;-82
2021/01/18 06:55:12;;;;;;;24.50;9.63;;;;;;;-6.12;75.53;99511.44;1769317;81;21325;-81
2021/01/18 06:57:51;;;;;;;21.30;9.83;;;;;;;-6.05;75.70;99511.31;1749067;80;21316;-82
2021/01/18 07:00:19;;;;;;;21.77;9.05;;;;;;;-6.02;75.73;99518.67;1768294;80;22299;-82
2021/01/18 07:03:06;;;;;;;22.10;10.23;;;;;;;-6.17;75.39;99484.16;1763951;80;21175;-80
2021/01/18 07:05:47;;;;;;;58.48;19.20;;;;;;;-5.86;75.50;99515.16;1757928;80;21253;-81
2021/01/18 07:08:21;;;;;;;52.58;15.98;;;;;;;-5.81;75.68;99517.53;1760145;80;21272;-82
2021/01/18 07:10:52;;;;;;;27.07;10.05;;;;;;;-5.71;75.48;99523.89;1763363;80;21257;-81
2021/01/18 07:13:21;;;;;;;21.82;8.80;;;;;;;-5.64;75.21;99527.16;1715725;82;21211;-81
2021/01/18 07:15:49;;;;;;;19.65;9.60;;;;;;;-5.62;75.60;99536.96;1699867;83;21262;-81
2021/01/18 07:18:19;;;;;;;22.40;7.35;;;;;;;-5.65;74.91;99519.48;1726371;82;21253;-82
2021/01/18 07:20:48;;;;;;;16.87;7.70;;;;;;;-5.54;74.31;99531.39;1714947;82;21432;-81
2021/01/18 07:23:28;;;;;;;25.17;8.33;;;;;;;-5.50;74.58;99539.19;1761639;80;22141;-81
2021/01/18 07:26:27;;;;;;;24.05;9.03;;;;;;;-5.42;74.46;99545.88;1756353;80;21261;-81
2021/01/18 07:28:59;;;;;;;26.40;9.90;;;;;;;-5.47;74.32;99539.34;1764674;80;21222;-81
2021/01/18 07:31:27;;;;;;;28.52;8.85;;;;;;;-5.41;74.15;99545.96;1763188;80;21137;-80
2021/01/18 07:33:55;;;;;;;17.80;8.00;;;;;;;-5.35;73.98;99542.84;1757478;80;21288;-81
2021/01/18 07:36:29;;;;;;;23.15;9.25;;;;;;;-5.32;74.47;99548.03;1764438;80;21284;-81
2021/01/18 07:38:58;;;;;;;20.68;8.10;;;;;;;-5.38;74.11;99544.36;1765043;80;21265;-82
2021/01/18 07:41:37;;;;;;;18.62;8.50;;;;;;;-5.37;74.11;99543.17;1759797;80;21284;-80
2021/01/18 07:44:33;;;;;;;22.98;8.58;;;;;;;-5.32;74.25;99545.91;1760984;80;21257;-81
2021/01/18 07:47:06;;;;;;;31.52;9.00;;;;;;;-5.49;74.62;99547.28;1764208;80;21676;-81
2021/01/18 07:49:46;;;;;;;22.13;9.33;;;;;;;-5.55;74.89;99551.17;1759165;80;21177;-81
2021/01/18 07:52:26;;;;;;;25.82;9.90;;;;;;;-5.45;74.48;99552.95;1753543;80;21164;-81
2021/01/18 07:54:56;;;;;;;20.05;8.28;;;;;;;-5.43;74.44;99547.56;1757531;80;21215;-82
2021/01/18 07:57:33;;;;;;;21.42;9.38;;;;;;;-5.48;74.65;99548.14;1761283;80;21298;-80
2021/01/18 08:00:23;;;;;;;21.27;9.48;;;;;;;-5.53;75.20;99546.67;1760404;80;21631;-81
2021/01/18 08:02:58;;;;;;;15.45;6.95;;;;;;;-5.45;75.08;99554.59;1765148;80;21283;-81
2021/01/18 08:05:38;;;;;;;21.52;8.83;;;;;;;-5.38;75.03;99555.77;1758055;80;21489;-82
2021/01/18 08:08:11;;;;;;;20.77;8.30;;;;;;;-5.52;75.52;99561.06;1757552;80;21207;-81
2021/01/18 08:11:00;;;;;;;25.43;8.58;;;;;;;-5.36;75.39;99559.23;1762771;80;21566;-82
2021/01/18 08:13:53;;;;;;;29.05;10.28;;;;;;;-5.32;75.17;99539.16;1761081;80;21269;-81
2021/01/18 08:16:40;;;;;;;21.97;8.60;;;;;;;-5.24;75.33;99556.84;1761659;80;21230;-81
2021/01/18 08:19:24;;;;;;;22.20;8.60;;;;;;;-5.13;75.32;99557.34;1766619;80;21305;-80
2021/01/18 08:22:04;;;;;;;22.47;8.77;;;;;;;-5.02;75.16;99559.94;1757732;80;21154;-80
2021/01/18 08:24:37;;;;;;;24.80;9.38;;;;;;;-4.98;75.28;99562.22;1761990;80;21624;-82
2021/01/18 08:27:12;;;;;;;17.05;9.28;;;;;;;-4.91;75.09;99564.23;1760073;80;21320;-82
2021/01/18 08:29:53;;;;;;;20.97;9.48;;;;;;;-4.95;75.03;99562.75;1760759;80;21501;-80
2021/01/18 08:32:34;;;;;;;21.20;9.48;;;;;;;-4.93;75.01;99568.38;1761647;80;21253;-80
2021/01/18 08:35:22;;;;;;;20.00;8.55;;;;;;;-4.85;74.80;99571.25;1765364;80;21123;-81
2021/01/18 08:38:00;;;;;;;22.55;8.98;;;;;;;-4.88;75.12;99571.10;1756953;80;21300;-80
2021/01/18 08:40:41;;;;;;;21.85;9.40;;;;;;;-4.86;75.16;99572.89;1759258;80;21269;-80
2021/01/18 08:43:11;;;;;;;31.50;10.45;;;;;;;-4.92;75.50;99574.31;1760325;80;21270;-81
2021/01/18 08:45:50;;;;;;;23.12;9.60;;;;;;;-4.76;74.97;99575.44;1757135;80;21277;-80
2021/01/18 08:48:26;;;;;;;23.25;9.60;;;;;;;-4.78;75.38;99571.97;1763773;80;21272;-81
2021/01/18 08:50:59;;;;;;;23.98;9.25;;;;;;;-4.72;75.26;99565.89;1754175;80;21272;-81
2021/01/18 08:53:45;;;;;;;27.37;9.53;;;;;;;-4.72;75.26;99565.89;1754755;80;21151;-81
2021/01/18 08:56:34;;;;;;;19.40;8.08;;;;;;;-4.63;75.49;99570.52;1755775;80;21234;-80
2021/01/18 08:59:19;;;;;;;22.45;8.90;;;;;;;-4.61;75.66;99573.98;1746637;80;21194;-81
2021/01/18 09:01:59;;;;;;;31.30;9.48;;;;;;;-4.61;75.93;99564.69;1731243;82;21309;-81
2021/01/18 09:04:33;;;;;;;25.80;8.85;;;;;;;-4.55;75.64;99575.92;1742185;82;21305;-81
2021/01/18 09:07:05;;;;;;;23.60;9.48;;;;;;;-4.47;75.57;99574.16;1729817;81;21336;-81
2021/01/18 09:09:41;;;;;;;;;;;;;;;-4.38;75.38;99571.13;1728380;82;21312;-80
2021/01/18 09:12:13;;;;;;;22.25;9.58;;;;;;;-4.42;75.57;99576.89;1722997;81;20270;-81
2021/01/18 09:14:46;;;;;;;36.85;10.32;;;;;;;-4.40;75.23;99576.17;1673265;85;21137;-80
2021/01/18 09:17:23;;;;;;;24.63;9.50;;;;;;;-4.33;75.36;99569.67;1733140;82;21297;-81
2021/01/18 09:19:55;;;;;;;31.02;10.30;;;;;;;-4.27;75.39;99562.72;1708810;82;21335;-81
2021/01/18 09:22:28;;;;;;;27.40;9.78;;;;;;;-4.17;75.47;99565.23;1730588;80;21147;-84
2021/01/18 09:24:59;;;;;;;24.72;10.03;;;;;;;-4.18;74.99;99571.10;1753723;78;21103;-84
2021/01/18 09:27:35;;;;;;;22.30;9.50;;;;;;;-4.07;74.59;99553.38;1764717;78;21441;-83
2021/01/18 09:33:28;;;;;;;21.57;9.00;;;;;;;-4.12;74.57;99559.52;1707964;79;21425;-81
2021/01/18 09:35:56;;;;;;;21.60;9.18;;;;;;;-4.17;74.27;99553.40;1728032;79;22469;-83
2021/01/18 09:44:57;;;;;;;25.80;9.83;;;;;;;-3.95;73.60;99555.55;1749842;79;21243;31
2021/01/18 09:47:40;;;;;;;29.25;10.80;;;;;;;-3.79;73.79;99554.06;1733883;80;21223;31
2021/01/18 09:50:22;;;;;;;33.48;10.20;;;;;;;-3.77;73.65;99543.56;1678899;80;21243;31
2021/01/18 09:52:53;;;;;;;32.00;9.35;;;;;;;-3.78;73.64;99547.31;1702493;78;21346;31
2021/01/18 09:58:45;;;;;;;28.40;9.45;;;;;;;-3.72;73.79;99552.25;1743837;77;21342;31
2021/01/18 10:04:47;;;;;;;23.62;9.18;;;;;;;-3.73;73.64;99548.37;1695021;80;21151;31
2021/01/18 10:07:24;;;;;;;25.07;10.10;;;;;;;-3.78;73.60;99548.58;1716049;79;21255;31
2021/01/18 10:10:03;;;;;;;36.33;12.10;;;;;;;-3.80;73.19;99556.12;1701482;81;21310;31
2021/01/18 10:12:45;;;;;;;31.77;11.43;;;;;;;-3.83;72.25;99554.76;1715295;79;22872;31
2021/01/18 10:18:47;;;;;;;23.03;9.80;;;;;;;-3.72;72.50;99547.55;1743868;78;21277;31
2021/01/18 10:21:15;;;;;;;17.32;8.23;;;;;;;-3.76;72.53;99568.56;1762866;80;21141;-83
2021/01/18 10:23:49;;;;;;;25.77;8.90;;;;;;;-3.62;72.27;99564.50;1745026;79;22513;31
2021/01/18 10:36:04;;;;;;;36.63;11.55;;;;;;;-3.72;72.13;99562.41;1777477;77;21196;-84
2021/01/18 10:44:55;;;;;;;30.10;9.95;;;;;;;-3.61;71.91;99557.32;1713063;79;21294;31
2021/01/18 10:47:54;;;;;;;24.52;9.43;;;;;;;-3.67;71.45;99553.69;1691765;80;21098;-81
2021/01/18 10:50:47;;;;;;;21.33;9.30;;;;;;;-3.61;71.57;99547.16;1751393;78;21335;31
2021/01/18 10:56:33;;;;;;;28.38;10.53;;;;;;;-3.54;71.34;99549.55;1745073;80;21182;31
2021/01/18 10:59:01;;;;;;;26.68;9.58;;;;;;;-3.49;71.44;99551.84;1704212;80;21241;-81
2021/01/18 11:04:59;;;;;;;25.57;9.83;;;;;;;-3.54;71.60;99535.57;1707030;80;21168;31
2021/01/18 11:07:29;;;;;;;25.72;9.48;;;;;;;-3.53;71.84;99525.85;1726423;80;21181;-84
2021/01/18 11:10:00;;;;;;;33.25;8.53;;;;;;;-3.53;71.84;99525.85;1719014;82;21264;-84
2021/01/18 11:15:35;;;;;;;26.35;10.05;;;;;;;-3.48;71.16;99540.89;1700404;80;21062;-84
2021/01/18 11:18:18;;;;;;;22.80;8.70;;;;;;;-3.40;71.56;99539.50;1746122;79;21205;31
2021/01/18 11:24:03;;;;;;;23.40;8.55;;;;;;;-3.41;71.79;99535.20;1734705;78;21189;31
2021/01/18 11:32:48;;;;;;;32.30;11.27;;;;;;;-3.51;71.62;99542.03;1733007;78;21319;31
2021/01/18 11:41:54;;;;;;;27.62;10.63;;;;;;;-3.53;71.85;99524.99;1746091;79;21190;31
2021/01/18 11:47:41;;;;;;;32.08;10.20;;;;;;;-3.61;71.57;99518.34;1662663;81;21221;31
2021/01/18 11:50:19;;;;;;;25.32;9.43;;;;;;;-3.51;71.58;99515.75;1748063;80;21224;31
2021/01/18 11:59:09;;;;;;;28.47;11.22;;;;;;;-3.51;71.25;99501.36;1722339;78;22538;31
2021/01/18 12:04:55;;;;;;;29.37;9.97;;;;;;;-3.42;70.23;99510.61;1760548;78;21322;31
2021/01/18 12:07:27;;;;;;;28.90;11.55;;;;;;;-3.37;70.01;99507.37;1690866;80;21622;31
2021/01/18 12:16:49;;;;;;;29.67;11.27;;;;;;;-3.38;69.42;99512.87;1716076;81;22652;31
2021/01/18 12:22:40;;;;;;;24.55;9.30;;;;;;;-3.21;68.76;99523.23;1703032;80;21188;31
2021/01/18 12:31:49;;;;;;;31.33;9.80;;;;;;;-3.06;67.83;99509.36;1684302;81;21827;31
2021/01/18 12:34:37;;;;;;;25.65;8.45;;;;;;;-2.92;67.86;99512.41;1722490;80;21332;31
2021/01/18 13:44:16;;;;;;;24.87;8.48;;;;;;;-2.33;62.63;99554.72;1710933;80;21241;31
2021/01/18 13:46:45;;;;;;;19.17;7.40;;;;;;;-2.41;60.70;99560.81;1686480;81;21312;-82
2021/01/18 13:52:34;;;;;;;22.98;9.38;;;;;;;-2.39;60.92;99551.55;1690961;80;21398;31
2021/01/18 13:58:13;;;;;;;20.68;8.75;;;;;;;-2.37;63.95;99558.83;1707346;80;21169;-81
2021/01/18 14:10:34;;;;;;;22.73;8.98;;;;;;;-2.69;64.70;99555.18;1695500;81;21217;31
2021/01/18 14:19:37;;;;;;;24.02;8.98;;;;;;;-3.03;66.65;99562.88;1710915;79;21241;31
2021/01/18 14:22:15;;;;;;;20.10;7.72;;;;;;;-3.15;66.53;99563.70;1676745;79;22642;31
2021/01/18 14:24:48;;;;;;;21.70;8.45;;;;;;;-3.15;66.53;99563.70;1726869;80;22494;31
2021/01/18 14:30:27;;;;;;;21.60;7.40;;;;;;;-3.13;66.08;99569.71;1727909;78;21260;31
2021/01/18 14:36:21;;;;;;;19.03;6.80;;;;;;;-3.39;65.55;99565.78;1725764;80;21210;31
2021/01/18 14:39:08;;;;;;;24.63;6.95;;;;;;;-3.48;65.16;99570.12;1692440;82;21329;31
2021/01/18 14:41:37;;;;;;;20.15;6.67;;;;;;;-3.42;65.84;99577.98;1721448;79;21218;-81
2021/01/18 14:44:06;;;;;;;24.45;6.65;;;;;;;-3.45;65.66;99580.80;1731071;79;21214;-84
2021/01/18 14:46:37;;;;;;;23.22;8.00;;;;;;;-3.46;66.22;99581.59;1726641;80;21329;31
2021/01/18 14:55:32;;;;;;;23.15;7.92;;;;;;;-3.70;66.57;99586.20;1773091;79;21170;-80
2021/01/18 14:58:00;;;;;;;17.02;5.65;;;;;;;-3.71;66.53;99586.14;1772178;80;21312;-82
2021/01/18 15:00:29;;;;;;;21.02;8.33;;;;;;;-3.85;66.72;99574.16;1773985;79;21315;-79
2021/01/18 15:02:56;;;;;;;24.30;5.85;;;;;;;-3.86;66.23;99573.30;1760470;80;21143;-80
2021/01/18 15:05:25;;;;;;;23.15;7.00;;;;;;;-3.86;66.41;99581.30;1770026;79;21197;-79
2021/01/18 15:07:53;;;;;;;16.73;6.95;;;;;;;-3.88;67.05;99583.80;1741508;80;22171;-78